createdAt,value
2019-01-24T00:01:12.688Z,26.70
2019-01-24T00:03:42.638Z,24.27
2019-01-24T00:06:12.400Z,27.53
2019-01-24T00:08:42.192Z,28.03
2019-01-24T00:11:11.900Z,25.23
2019-01-24T00:13:41.651Z,26.40
2019-01-24T00:16:11.460Z,25.23
2019-01-24T00:18:41.283Z,24.30
2019-01-24T00:21:10.905Z,27.07
2019-01-24T00:23:41.011Z,23.43
2019-01-24T00:26:10.960Z,24.03
2019-01-24T00:28:41.094Z,24.40
2019-01-24T00:31:10.785Z,23.77
2019-01-24T00:33:40.565Z,23.60
2019-01-24T00:36:10.344Z,24.60
2019-01-24T00:38:40.095Z,27.40
2019-01-24T00:41:10.098Z,24.13
2019-01-24T00:43:40.142Z,24.50
2019-01-24T00:46:09.919Z,25.67
2019-01-24T00:48:39.742Z,25.97
2019-01-24T00:51:09.443Z,25.80
2019-01-24T00:53:39.075Z,27.57
2019-01-24T00:56:09.107Z,27.47
2019-01-24T00:58:38.961Z,26.60
2019-01-24T01:01:08.724Z,26.53
2019-01-24T01:03:38.403Z,25.23
2019-01-24T01:06:08.120Z,27.07
2019-01-24T01:08:37.770Z,27.00
2019-01-24T01:11:07.535Z,27.13
2019-01-24T01:13:37.323Z,26.70
2019-01-24T01:16:07.100Z,27.97
2019-01-24T01:18:37.034Z,26.70
2019-01-24T01:21:06.824Z,26.20
2019-01-24T01:23:36.604Z,27.70
2019-01-24T01:26:06.368Z,26.07
2019-01-24T01:28:36.199Z,26.13
2019-01-24T01:31:06.042Z,27.70
2019-01-24T01:33:35.750Z,28.30
2019-01-24T01:36:07.047Z,27.60
2019-01-24T01:38:36.756Z,27.87
2019-01-24T01:41:06.451Z,27.20
2019-01-24T01:43:36.087Z,25.13
2019-01-24T01:46:05.874Z,25.43
2019-01-24T01:48:35.592Z,25.67
2019-01-24T01:51:05.376Z,26.47
2019-01-24T01:53:35.086Z,27.60
2019-01-24T01:56:04.864Z,27.93
2019-01-24T01:58:34.563Z,26.43
2019-01-24T02:01:05.360Z,26.80
2019-01-24T02:03:35.138Z,25.57
2019-01-24T02:06:05.019Z,27.57
2019-01-24T02:08:34.717Z,27.47
2019-01-24T02:11:04.874Z,28.90
2019-01-24T02:13:34.630Z,27.30
2019-01-24T02:16:04.463Z,27.90
2019-01-24T02:18:34.237Z,27.97
2019-01-24T02:21:04.034Z,29.03
2019-01-24T02:23:33.742Z,25.77
2019-01-24T02:26:03.771Z,28.00
2019-01-24T02:28:33.543Z,28.23
2019-01-24T02:31:03.527Z,29.07
2019-01-24T02:33:33.754Z,29.00
2019-01-24T02:36:03.554Z,26.63
2019-01-24T02:38:33.215Z,27.60
2019-01-24T02:41:03.206Z,27.43
2019-01-24T02:43:32.992Z,27.10
2019-01-24T02:46:02.911Z,28.30
2019-01-24T02:48:32.535Z,26.43
2019-01-24T02:51:02.263Z,26.97
2019-01-24T02:53:31.894Z,28.33
2019-01-24T02:56:01.873Z,28.67
2019-01-24T02:58:31.803Z,29.00
2019-01-24T03:01:01.515Z,27.33
2019-01-24T03:03:31.223Z,30.33
2019-01-24T03:06:00.948Z,27.13
2019-01-24T03:08:30.904Z,28.97
2019-01-24T03:11:00.943Z,28.17
2019-01-24T03:13:30.731Z,29.37
2019-01-24T03:16:00.516Z,27.47
2019-01-24T03:18:30.326Z,28.80
2019-01-24T03:21:00.301Z,28.93
2019-01-24T03:23:30.009Z,29.03
2019-01-24T03:25:59.721Z,27.77
2019-01-24T03:28:29.781Z,26.10
2019-01-24T03:30:59.402Z,29.57
2019-01-24T03:33:29.355Z,29.40
2019-01-24T03:36:01.444Z,27.60
2019-01-24T03:38:40.664Z,28.03
2019-01-24T03:41:29.769Z,28.70
2019-01-24T03:43:59.653Z,30.90
2019-01-24T03:46:29.683Z,27.33
2019-01-24T03:48:59.951Z,29.33
2019-01-24T03:51:29.882Z,28.63
2019-01-24T03:54:01.390Z,28.13
2019-01-24T03:56:31.403Z,27.67
2019-01-24T03:59:01.455Z,27.20
2019-01-24T04:01:31.232Z,29.10
2019-01-24T04:06:52.970Z,27.60
2019-01-24T04:09:31.486Z,31.27
2019-01-24T04:12:08.640Z,28.00
2019-01-24T04:14:38.560Z,29.20
2019-01-24T04:17:08.372Z,32.67
2019-01-24T04:19:38.006Z,26.43
2019-01-24T04:22:07.782Z,30.20
2019-01-24T04:24:37.723Z,31.73
2019-01-24T04:27:07.438Z,28.80
2019-01-24T04:29:37.335Z,28.30
2019-01-24T04:32:07.383Z,28.33
2019-01-24T04:34:37.006Z,25.30
2019-01-24T04:37:07.081Z,30.20
2019-01-24T04:39:36.712Z,30.40
2019-01-24T04:42:07.163Z,32.10
2019-01-24T04:44:37.127Z,29.20
2019-01-24T04:47:06.846Z,30.00
2019-01-24T04:49:36.487Z,29.80
2019-01-24T04:52:06.295Z,31.10
2019-01-24T04:54:36.253Z,30.27
2019-01-24T04:57:08.790Z,30.27
2019-01-24T04:59:38.510Z,30.57
2019-01-24T05:02:08.257Z,32.27
2019-01-24T05:04:38.023Z,29.33
2019-01-24T05:07:07.771Z,31.20
2019-01-24T05:09:37.459Z,31.30
2019-01-24T05:12:07.184Z,33.20
2019-01-24T05:14:36.892Z,30.17
2019-01-24T05:17:06.691Z,30.97
2019-01-24T05:19:36.367Z,30.50
2019-01-24T05:22:06.212Z,30.70
2019-01-24T05:24:35.843Z,31.57
2019-01-24T05:27:06.021Z,30.10
2019-01-24T05:29:35.800Z,29.93
2019-01-24T05:32:05.638Z,29.57
2019-01-24T05:34:35.263Z,28.50
2019-01-24T05:37:05.202Z,29.63
2019-01-24T05:39:54.031Z,29.30
2019-01-24T05:42:23.694Z,30.10
2019-01-24T05:44:53.415Z,30.67
2019-01-24T05:47:23.074Z,28.90
2019-01-24T05:49:53.052Z,30.27
2019-01-24T05:52:22.703Z,30.80
2019-01-24T05:54:52.403Z,28.73
2019-01-24T05:57:22.504Z,27.97
2019-01-24T06:00:13.237Z,27.47
2019-01-24T06:02:46.103Z,28.83
2019-01-24T06:05:16.541Z,30.37
2019-01-24T06:07:46.268Z,27.10
2019-01-24T06:10:16.061Z,28.23
2019-01-24T06:12:46.409Z,26.93
2019-01-24T06:15:16.294Z,30.87
2019-01-24T06:17:46.126Z,30.83
2019-01-24T06:20:16.021Z,30.40
2019-01-24T06:22:45.743Z,28.17
2019-01-24T06:25:16.003Z,28.17
2019-01-24T06:27:45.783Z,29.10
2019-01-24T06:30:18.019Z,26.60
2019-01-24T06:32:47.831Z,29.13
2019-01-24T06:35:17.659Z,31.17
2019-01-24T06:37:47.822Z,29.67
2019-01-24T06:40:17.632Z,31.43
2019-01-24T06:42:47.471Z,30.00
2019-01-24T06:45:19.398Z,30.10
2019-01-24T06:47:49.207Z,29.50
2019-01-24T06:50:19.379Z,29.27
2019-01-24T06:52:49.460Z,28.60
2019-01-24T06:55:24.683Z,30.13
2019-01-24T06:57:54.444Z,30.30
2019-01-24T07:00:24.485Z,29.93
2019-01-24T07:02:54.583Z,29.70
2019-01-24T07:05:24.288Z,31.17
2019-01-24T07:07:54.263Z,28.20
2019-01-24T07:10:24.815Z,27.90
2019-01-24T07:12:54.652Z,27.90
2019-01-24T07:15:24.595Z,30.20
2019-01-24T07:17:54.390Z,31.97
2019-01-24T07:20:24.175Z,30.07
2019-01-24T07:22:53.913Z,29.87
2019-01-24T07:25:25.796Z,29.17
2019-01-24T07:27:55.594Z,28.63
2019-01-24T07:30:25.307Z,31.10
2019-01-24T07:32:55.096Z,27.43
2019-01-24T07:35:24.873Z,28.43
2019-01-24T07:37:54.765Z,31.37
2019-01-24T07:40:24.733Z,31.83
2019-01-24T07:42:54.598Z,29.20
2019-01-24T07:45:30.022Z,27.60
2019-01-24T07:47:59.831Z,28.10
2019-01-24T07:50:29.644Z,30.83
2019-01-24T07:52:59.769Z,28.27
2019-01-24T07:55:29.557Z,27.80
2019-01-24T07:57:59.412Z,27.53
2019-01-24T08:00:29.667Z,28.83
2019-01-24T08:02:59.462Z,29.13
2019-01-24T08:05:29.603Z,26.37
2019-01-24T08:07:59.424Z,29.93
2019-01-24T08:10:29.357Z,29.30
2019-01-24T08:12:59.342Z,28.83
2019-01-24T08:15:29.383Z,27.80
2019-01-24T08:17:59.223Z,30.23
2019-01-24T08:20:29.087Z,30.10
2019-01-24T08:22:58.809Z,25.57
2019-01-24T08:25:28.634Z,27.70
2019-01-24T08:27:58.598Z,29.20
2019-01-24T08:30:30.630Z,28.80
2019-01-24T08:33:00.471Z,27.23
2019-01-24T08:35:30.238Z,30.30
2019-01-24T08:38:00.283Z,27.63
2019-01-24T08:40:29.989Z,29.50
2019-01-24T08:42:59.707Z,26.43
2019-01-24T08:45:29.686Z,29.27
2019-01-24T08:48:00.643Z,28.20
2019-01-24T08:50:30.427Z,30.07
2019-01-24T08:53:00.153Z,30.63
2019-01-24T08:55:43.619Z,26.53
2019-01-24T08:58:13.462Z,26.67
2019-01-24T09:00:43.511Z,28.40
2019-01-24T09:03:13.295Z,28.43
2019-01-24T09:05:43.071Z,27.97
2019-01-24T09:08:12.868Z,26.73
2019-01-24T09:10:42.747Z,27.97
2019-01-24T09:13:12.491Z,27.50
2019-01-24T09:15:42.281Z,27.73
2019-01-24T09:18:12.270Z,28.20
2019-01-24T09:20:41.968Z,27.27
2019-01-24T09:23:11.811Z,27.77
2019-01-24T09:25:41.740Z,28.70
2019-01-24T09:28:15.083Z,28.80
2019-01-24T09:30:42.975Z,26.13
2019-01-24T09:33:12.703Z,27.93
2019-01-24T09:35:43.024Z,28.87
2019-01-24T09:38:12.687Z,27.80
2019-01-24T09:40:42.379Z,28.80
2019-01-24T09:43:12.101Z,27.77
2019-01-24T09:45:41.832Z,29.77
2019-01-24T09:48:11.636Z,27.43
2019-01-24T09:50:41.355Z,27.50
2019-01-24T09:53:11.067Z,25.17
2019-01-24T09:55:40.855Z,26.10
2019-01-24T09:58:10.657Z,24.97
2019-01-24T10:00:40.455Z,26.60
2019-01-24T10:03:10.304Z,28.07
2019-01-24T10:05:40.612Z,26.87
2019-01-24T10:08:10.427Z,26.30
2019-01-24T10:10:40.472Z,28.57
2019-01-24T10:13:10.280Z,28.77
2019-01-24T10:15:41.216Z,26.83
2019-01-24T10:18:11.013Z,27.97
2019-01-24T10:20:40.860Z,25.40
2019-01-24T10:23:10.831Z,25.77
2019-01-24T10:25:41.043Z,27.10
2019-01-24T10:28:11.260Z,25.47
2019-01-24T10:30:43.201Z,26.27
2019-01-24T10:33:12.587Z,27.30
2019-01-24T10:35:42.313Z,28.30
2019-01-24T10:38:12.030Z,27.60
2019-01-24T10:40:42.084Z,29.03
2019-01-24T10:43:11.802Z,26.90
2019-01-24T10:45:41.527Z,27.93
2019-01-24T10:48:11.317Z,28.30
2019-01-24T10:50:41.116Z,25.70
2019-01-24T10:53:10.857Z,26.47
2019-01-24T10:55:40.840Z,27.87
2019-01-24T10:58:10.915Z,27.70
2019-01-24T11:00:42.473Z,27.87
2019-01-24T11:03:19.570Z,51.40
2019-01-24T11:05:49.387Z,27.63
2019-01-24T11:08:19.443Z,25.97
2019-01-24T11:10:49.304Z,29.00
2019-01-24T11:13:19.150Z,27.13
2019-01-24T11:15:49.427Z,26.40
2019-01-24T11:18:19.163Z,27.67
2019-01-24T11:20:49.005Z,28.73
2019-01-24T11:23:18.735Z,27.23
2019-01-24T11:25:48.715Z,27.30
2019-01-24T11:28:20.078Z,26.60
2019-01-24T11:30:49.879Z,26.83
2019-01-24T11:33:19.586Z,25.73
2019-01-24T11:35:49.381Z,26.00
2019-01-24T11:38:19.129Z,25.47
2019-01-24T11:40:48.861Z,24.60
2019-01-24T11:43:18.650Z,25.13
2019-01-24T11:46:07.450Z,28.10
2019-01-24T11:48:37.488Z,26.67
2019-01-24T11:51:07.920Z,24.67
2019-01-24T11:53:37.991Z,25.80
2019-01-24T11:56:07.836Z,25.83
2019-01-24T11:58:37.854Z,24.80
2019-01-24T12:01:07.791Z,24.83
2019-01-24T12:03:37.755Z,26.30
2019-01-24T12:06:07.600Z,25.50
2019-01-24T12:08:37.629Z,21.73
2019-01-24T12:11:07.328Z,28.27
2019-01-24T12:13:37.052Z,24.20
2019-01-24T12:16:07.085Z,23.90
2019-01-24T12:18:36.808Z,24.80
2019-01-24T12:21:06.600Z,23.80
2019-01-24T12:23:44.145Z,19.20
2019-01-24T12:26:14.144Z,20.30
2019-01-24T12:28:43.966Z,20.37
2019-01-24T12:31:13.679Z,19.10
2019-01-24T12:33:43.475Z,22.30
2019-01-24T12:36:32.420Z,19.20
2019-01-24T12:39:02.535Z,20.10
2019-01-24T12:41:32.244Z,17.87
2019-01-24T12:44:02.023Z,20.40
2019-01-24T12:46:31.816Z,21.17
2019-01-24T12:49:01.667Z,17.80
2019-01-24T12:51:31.718Z,18.10
2019-01-24T12:54:01.707Z,18.00
2019-01-24T12:56:31.556Z,20.87
2019-01-24T12:59:01.334Z,17.90
2019-01-24T13:01:31.110Z,20.03
2019-01-24T13:04:00.839Z,22.60
2019-01-24T13:06:30.670Z,21.37
2019-01-24T13:09:00.321Z,23.13
2019-01-24T13:11:30.471Z,19.00
2019-01-24T13:14:00.128Z,17.60
2019-01-24T13:16:30.891Z,18.83
2019-01-24T13:19:00.787Z,19.40
2019-01-24T13:21:33.328Z,17.60
2019-01-24T13:24:03.293Z,14.40
2019-01-24T13:26:32.998Z,14.90
2019-01-24T13:29:02.871Z,16.70
2019-01-24T13:31:32.910Z,19.07
2019-01-24T13:34:02.679Z,18.83
2019-01-24T13:36:32.823Z,17.27
2019-01-24T13:39:02.820Z,17.30
2019-01-24T13:41:32.494Z,18.20
2019-01-24T13:44:03.419Z,18.80
2019-01-24T13:46:33.300Z,15.27
2019-01-24T13:49:04.007Z,17.80
2019-01-24T13:51:33.829Z,17.10
2019-01-24T13:54:03.931Z,16.57
2019-01-24T13:56:33.687Z,17.47
2019-01-24T13:59:03.874Z,19.90
2019-01-24T14:01:33.631Z,16.27
2019-01-24T14:04:14.534Z,19.67
2019-01-24T14:06:44.524Z,19.10
2019-01-24T14:09:16.031Z,17.30
2019-01-24T14:11:45.694Z,17.73
2019-01-24T14:14:15.472Z,16.73
2019-01-24T14:16:45.215Z,18.57
2019-01-24T14:19:15.321Z,16.37
2019-01-24T14:21:45.101Z,18.83
2019-01-24T14:24:15.144Z,19.33
2019-01-24T14:26:45.006Z,19.63
2019-01-24T14:29:15.191Z,18.10
2019-01-24T14:31:44.971Z,17.03
2019-01-24T14:34:14.942Z,17.50
2019-01-24T14:36:45.059Z,18.17
2019-01-24T14:39:14.776Z,18.40
2019-01-24T14:41:44.715Z,18.50
2019-01-24T14:44:14.428Z,19.43
2019-01-24T14:46:44.516Z,19.83
2019-01-24T14:49:14.443Z,19.37
2019-01-24T14:51:44.259Z,18.47
2019-01-24T14:54:13.930Z,22.10
2019-01-24T14:56:43.639Z,20.07
2019-01-24T14:59:13.740Z,21.17
2019-01-24T15:01:43.781Z,22.93
2019-01-24T15:04:13.524Z,22.30
2019-01-24T15:06:43.301Z,19.80
2019-01-24T15:09:13.239Z,19.90
2019-01-24T15:11:42.888Z,21.43
2019-01-24T15:14:12.989Z,20.23
2019-01-24T15:16:43.039Z,20.50
2019-01-24T15:19:13.363Z,18.90
2019-01-24T15:21:43.457Z,21.93
2019-01-24T15:24:13.281Z,23.07
2019-01-24T15:26:43.036Z,20.93
2019-01-24T15:29:12.743Z,19.60
2019-01-24T15:31:42.528Z,20.27
2019-01-24T15:34:12.333Z,19.17
2019-01-24T15:36:42.402Z,20.80
2019-01-24T15:39:13.805Z,20.50
2019-01-24T15:41:43.569Z,18.67
2019-01-24T15:44:13.287Z,18.47
2019-01-24T15:46:43.094Z,19.33
2019-01-24T15:49:12.986Z,17.60
2019-01-24T15:51:42.951Z,17.70
2019-01-24T15:54:12.898Z,17.20
2019-01-24T15:56:42.669Z,17.10
2019-01-24T15:59:12.823Z,18.53
2019-01-24T16:01:42.776Z,16.27
2019-01-24T16:04:12.540Z,14.43
2019-01-24T16:06:44.194Z,15.80
2019-01-24T16:09:14.527Z,15.93
2019-01-24T16:11:44.876Z,14.57
2019-01-24T16:14:15.103Z,17.13
2019-01-24T16:16:44.866Z,14.73
2019-01-24T16:19:15.071Z,15.73
2019-01-24T16:21:45.019Z,15.37
2019-01-24T16:24:15.080Z,14.60
2019-01-24T16:26:46.450Z,15.93
2019-01-24T16:29:18.029Z,16.73
2019-01-24T16:31:47.996Z,17.00
2019-01-24T16:34:17.970Z,14.83
2019-01-24T16:36:48.119Z,13.60
2019-01-24T16:39:18.172Z,17.67
2019-01-24T16:41:48.327Z,15.77
2019-01-24T16:44:18.063Z,15.53
2019-01-24T16:46:47.887Z,15.93
2019-01-24T16:49:17.811Z,70.43
2019-01-24T16:51:47.901Z,22.07
2019-01-24T16:54:17.724Z,18.43
2019-01-24T16:56:47.448Z,17.27
2019-01-24T16:59:17.542Z,16.70
2019-01-24T17:01:48.056Z,19.40
2019-01-24T17:04:17.908Z,21.20
2019-01-24T17:07:06.895Z,20.00
2019-01-24T17:09:36.755Z,23.87
2019-01-24T17:12:07.027Z,23.20
2019-01-24T17:14:36.820Z,21.07
2019-01-24T17:17:06.919Z,26.30
2019-01-24T17:19:37.680Z,19.33
2019-01-24T17:22:07.579Z,20.67
2019-01-24T17:24:37.348Z,23.63
2019-01-24T17:27:07.270Z,22.00
2019-01-24T17:29:37.244Z,23.37
2019-01-24T17:32:08.790Z,23.97
2019-01-24T17:34:38.553Z,26.53
2019-01-24T17:37:08.245Z,26.00
2019-01-24T17:39:37.992Z,25.03
2019-01-24T17:42:07.702Z,25.20
2019-01-24T17:44:37.479Z,26.23
2019-01-24T17:47:07.731Z,27.20
2019-01-24T17:49:37.732Z,27.10
2019-01-24T17:52:07.445Z,28.57
2019-01-24T17:54:37.403Z,28.07
2019-01-24T17:57:08.955Z,27.27
2019-01-24T17:59:39.414Z,25.60
2019-01-24T18:02:09.291Z,23.67
2019-01-24T18:04:39.027Z,27.93
2019-01-24T18:07:09.314Z,26.63
2019-01-24T18:09:39.685Z,27.13
2019-01-24T18:12:09.755Z,25.63
2019-01-24T18:14:39.588Z,25.43
2019-01-24T18:17:09.443Z,25.90
2019-01-24T18:19:39.141Z,27.47
2019-01-24T18:22:10.753Z,27.33
2019-01-24T18:24:40.467Z,28.17
2019-01-24T18:27:10.336Z,26.63
2019-01-24T18:29:43.287Z,29.93
2019-01-24T18:32:13.050Z,27.63
2019-01-24T18:34:42.826Z,28.47
2019-01-24T18:37:12.740Z,30.13
2019-01-24T18:39:43.928Z,28.10
2019-01-24T18:42:13.723Z,28.00
2019-01-24T18:44:43.778Z,29.37
2019-01-24T18:47:13.891Z,27.73
2019-01-24T18:49:43.526Z,28.57
2019-01-24T18:52:13.348Z,29.47
2019-01-24T18:54:46.199Z,25.47
2019-01-24T18:57:16.015Z,23.97
2019-01-24T18:59:45.819Z,25.00
2019-01-24T19:02:15.595Z,25.07
2019-01-24T19:04:48.847Z,22.90
2019-01-24T19:07:18.875Z,20.80
2019-01-24T19:09:48.544Z,22.30
2019-01-24T19:12:18.655Z,24.13
2019-01-24T19:14:48.546Z,22.13
2019-01-24T19:17:18.286Z,20.40
2019-01-24T19:19:48.347Z,21.87
2019-01-24T19:22:18.292Z,24.00
2019-01-24T19:24:48.003Z,22.60
2019-01-24T19:27:17.678Z,21.90
2019-01-24T19:29:47.379Z,23.30
2019-01-24T19:32:17.310Z,22.63
2019-01-24T19:34:47.026Z,21.77
2019-01-24T19:37:16.779Z,22.83
2019-01-24T19:39:46.485Z,23.67
2019-01-24T19:42:16.175Z,24.07
2019-01-24T19:44:45.915Z,25.27
2019-01-24T19:47:15.611Z,26.00
2019-01-24T19:49:45.251Z,25.10
2019-01-24T19:52:15.068Z,25.20
2019-01-24T19:54:44.796Z,26.13
2019-01-24T19:57:14.495Z,24.90
2019-01-24T19:59:44.188Z,27.87
2019-01-24T20:02:13.870Z,26.10
2019-01-24T20:04:43.940Z,25.83
2019-01-24T20:07:13.734Z,25.33
2019-01-24T20:09:49.447Z,25.10
2019-01-24T20:12:19.495Z,23.43
2019-01-24T20:15:08.964Z,25.90
2019-01-24T20:17:38.756Z,23.73
2019-01-24T20:20:10.454Z,24.13
2019-01-24T20:22:40.254Z,24.27
2019-01-24T20:25:12.699Z,23.83
2019-01-24T20:27:42.406Z,30.03
2019-01-24T20:30:21.309Z,24.30
2019-01-24T20:32:51.228Z,25.70
2019-01-24T20:35:26.883Z,22.47
2019-01-24T20:37:56.619Z,22.67
2019-01-24T20:40:26.447Z,25.57
2019-01-24T20:42:56.246Z,23.27
2019-01-24T20:45:26.025Z,23.20
2019-01-24T20:47:55.850Z,25.03
2019-01-24T20:50:25.577Z,23.50
2019-01-24T20:52:55.347Z,22.17
2019-01-24T20:55:25.017Z,21.77
2019-01-24T20:57:54.772Z,23.17
2019-01-24T21:00:24.807Z,25.47
2019-01-24T21:02:55.026Z,25.60
2019-01-24T21:05:25.130Z,24.10
2019-01-24T21:07:55.271Z,22.30
2019-01-24T21:10:25.816Z,23.70
2019-01-24T21:12:55.609Z,23.60
2019-01-24T21:15:25.532Z,22.50
2019-01-24T21:17:55.266Z,23.90
2019-01-24T21:20:26.578Z,23.60
2019-01-24T21:22:56.375Z,26.77
2019-01-24T21:25:26.599Z,23.73
2019-01-24T21:27:56.613Z,23.50
2019-01-24T21:30:28.868Z,24.57
2019-01-24T21:32:58.631Z,23.57
2019-01-24T21:35:28.817Z,24.43
2019-01-24T21:37:58.507Z,23.13
2019-01-24T21:40:28.338Z,23.00
2019-01-24T21:42:58.079Z,22.40
2019-01-24T21:45:32.499Z,24.23
2019-01-24T21:48:02.276Z,24.00
2019-01-24T21:50:32.810Z,22.83
2019-01-24T21:53:02.639Z,27.97
2019-01-24T21:55:32.394Z,22.93
2019-01-24T21:58:02.142Z,23.40
2019-01-24T22:00:31.907Z,24.53
2019-01-24T22:03:01.621Z,21.90
2019-01-24T22:05:31.679Z,23.43
2019-01-24T22:08:01.479Z,21.87
2019-01-24T22:10:31.374Z,19.90
2019-01-24T22:13:01.080Z,21.87
2019-01-24T22:15:31.065Z,24.23
2019-01-24T22:18:01.253Z,24.33
2019-01-24T22:20:31.015Z,26.70
2019-01-24T22:23:00.895Z,22.47
2019-01-24T22:25:43.823Z,22.70
2019-01-24T22:28:16.989Z,22.67
2019-01-24T22:30:54.065Z,22.20
2019-01-24T22:33:23.716Z,21.80
2019-01-24T22:35:54.665Z,23.50
2019-01-24T22:38:28.655Z,23.47
2019-01-24T22:40:58.459Z,22.43
2019-01-24T22:43:28.420Z,21.17
2019-01-24T22:45:58.444Z,22.60
2019-01-24T22:48:31.255Z,23.83
2019-01-24T22:51:05.392Z,24.00
2019-01-24T22:53:37.824Z,22.87
2019-01-24T22:56:26.744Z,24.90
2019-01-24T22:58:56.787Z,24.40
2019-01-24T23:02:16.987Z,22.10
2019-01-24T23:05:16.596Z,23.50
2019-01-24T23:07:48.131Z,24.20
2019-01-24T23:10:18.023Z,23.60
2019-01-24T23:12:48.235Z,23.40
2019-01-24T23:15:17.945Z,23.60
2019-01-24T23:17:47.895Z,21.37
2019-01-24T23:20:19.539Z,24.60
2019-01-24T23:22:49.291Z,23.40
2019-01-24T23:25:19.031Z,23.37
2019-01-24T23:27:48.820Z,23.60
2019-01-24T23:30:18.815Z,24.47
2019-01-24T23:32:48.602Z,21.53
2019-01-24T23:35:18.327Z,21.80
2019-01-24T23:37:52.333Z,22.80
2019-01-24T23:40:19.534Z,22.90
2019-01-24T23:42:49.349Z,26.83
2019-01-24T23:45:19.291Z,24.47
2019-01-24T23:47:49.074Z,21.60
2019-01-24T23:50:19.023Z,25.67
2019-01-24T23:52:48.804Z,23.03
2019-01-24T23:55:18.958Z,24.90
2019-01-24T23:57:48.754Z,23.90
